createdAt,value
2023-01-28T00:00:03.458Z,95717.19
2023-01-28T00:03:05.686Z,95723.28
2023-01-28T00:06:11.687Z,95708.97
2023-01-28T00:09:14.355Z,95716.50
2023-01-28T00:12:17.745Z,95711.09
2023-01-28T00:15:20.069Z,95716.41
2023-01-28T00:18:21.968Z,95714.34
2023-01-28T00:21:24.187Z,95714.66
2023-01-28T00:24:26.163Z,95707.97
2023-01-28T00:27:29.510Z,95708.63
2023-01-28T00:30:31.381Z,95708.63
2023-01-28T00:33:33.634Z,95713.94
2023-01-28T00:36:35.545Z,95711.38
2023-01-28T00:39:37.467Z,95713.44
2023-01-28T00:42:41.378Z,95715.34
2023-01-28T00:45:43.646Z,95717.00
2023-01-28T00:48:46.377Z,95719.34
2023-01-28T00:51:48.588Z,95718.78
2023-01-28T00:54:50.458Z,95727.78
2023-01-28T00:57:54.266Z,95729.25
2023-01-28T01:00:56.781Z,95726.69
2023-01-28T01:03:58.823Z,95721.41
2023-01-28T01:07:00.807Z,95728.78
2023-01-28T01:10:02.796Z,95727.50
2023-01-28T01:13:07.452Z,95737.63
2023-01-28T01:16:11.672Z,95738.69
2023-01-28T01:19:13.697Z,95740.97
2023-01-28T01:22:16.233Z,95744.78
2023-01-28T01:25:19.082Z,95735.16
2023-01-28T01:28:22.962Z,95745.75
2023-01-28T01:31:24.876Z,95732.13
2023-01-28T01:34:27.814Z,95740.06
2023-01-28T01:37:30.039Z,95740.06
2023-01-28T01:40:33.035Z,95743.69
2023-01-28T01:43:51.519Z,95744.19
2023-01-28T01:46:54.194Z,95743.09
2023-01-28T01:49:57.301Z,95736.63
2023-01-28T01:53:05.210Z,95740.84
2023-01-28T01:56:10.684Z,95748.59
2023-01-28T01:59:18.124Z,95747.59
2023-01-28T02:02:24.328Z,95752.00
2023-01-28T02:05:26.511Z,95750.25
2023-01-28T02:08:28.509Z,95749.88
2023-01-28T02:11:33.891Z,95745.47
2023-01-28T02:14:41.476Z,95756.34
2023-01-28T02:17:45.516Z,95753.91
2023-01-28T02:21:10.543Z,95754.47
2023-01-28T02:24:37.405Z,95753.97
2023-01-28T02:27:58.094Z,95752.00
2023-01-28T02:31:11.136Z,95758.88
2023-01-28T02:34:18.828Z,95754.47
2023-01-28T02:37:25.586Z,95749.09
2023-01-28T02:40:31.505Z,95753.28
2023-01-28T02:43:36.926Z,95758.81
2023-01-28T02:46:38.722Z,95757.03
2023-01-28T02:49:44.455Z,95755.66
2023-01-28T02:52:56.521Z,95751.63
2023-01-28T02:56:13.327Z,95751.94
2023-01-28T02:59:23.545Z,95755.34
2023-01-28T03:02:33.323Z,95752.81
2023-01-28T03:05:38.998Z,95761.66
2023-01-28T03:08:45.851Z,95766.53
2023-01-28T03:11:51.440Z,95763.59
2023-01-28T03:14:58.246Z,95767.63
2023-01-28T03:18:06.256Z,95761.66
2023-01-28T03:21:11.196Z,95764.56
2023-01-28T03:24:17.712Z,95769.22
2023-01-28T03:27:26.816Z,95769.41
2023-01-28T03:30:38.297Z,95763.31
2023-01-28T03:33:42.432Z,95767.63
2023-01-28T03:36:46.518Z,95768.41
2023-01-28T03:39:48.923Z,95767.13
2023-01-28T03:42:50.960Z,95775.47
2023-01-28T03:45:54.291Z,95783.13
2023-01-28T03:48:57.091Z,95788.03
2023-01-28T03:51:59.386Z,95787.34
2023-01-28T03:55:01.726Z,95786.25
2023-01-28T03:58:04.049Z,95782.84
2023-01-28T04:01:08.548Z,95779.13
2023-01-28T04:04:10.335Z,95787.84
2023-01-28T04:07:13.947Z,95789.03
2023-01-28T04:10:16.795Z,95796.16
2023-01-28T04:13:19.041Z,95784.41
2023-01-28T04:16:22.921Z,95792.56
2023-01-28T04:19:25.624Z,95799.00
2023-01-28T04:22:27.391Z,95799.22
2023-01-28T04:25:30.461Z,95796.47
2023-01-28T04:28:32.695Z,95795.09
2023-01-28T04:31:36.969Z,95795.00
2023-01-28T04:34:38.856Z,95799.22
2023-01-28T04:37:41.722Z,95802.66
2023-01-28T04:40:44.330Z,95809.78
2023-01-28T04:43:46.832Z,95817.63
2023-01-28T04:46:50.688Z,95819.84
2023-01-28T04:49:52.522Z,95822.09
2023-01-28T04:52:54.812Z,95815.03
2023-01-28T04:55:58.490Z,95820.84
2023-01-28T04:59:00.478Z,95822.84
2023-01-28T05:02:04.395Z,95822.25
2023-01-28T05:05:07.365Z,95822.19
2023-01-28T05:08:09.390Z,95827.88
2023-01-28T05:11:11.686Z,95828.06
2023-01-28T05:14:14.204Z,95825.22
2023-01-28T05:17:17.683Z,95831.50
2023-01-28T05:20:19.898Z,95831.50
2023-01-28T05:23:22.665Z,95828.47
2023-01-28T05:26:24.780Z,95827.06
2023-01-28T05:29:27.020Z,95834.84
2023-01-28T05:32:30.470Z,95840.31
2023-01-28T05:35:32.465Z,95829.53
2023-01-28T05:38:34.496Z,95842.88
2023-01-28T05:41:36.591Z,95845.94
2023-01-28T05:44:40.992Z,95847.31
2023-01-28T05:47:45.807Z,95846.50
2023-01-28T05:50:48.075Z,95853.34
2023-01-28T05:53:50.368Z,95858.09
2023-01-28T05:56:52.876Z,95857.69
2023-01-28T05:59:55.112Z,95859.66
2023-01-28T06:02:58.727Z,95860.94
2023-01-28T06:06:01.024Z,95863.06
2023-01-28T06:09:03.347Z,95869.88
2023-01-28T06:12:06.614Z,95867.31
2023-01-28T06:15:10.071Z,95872.34
2023-01-28T06:18:13.231Z,95874.19
2023-01-28T06:21:15.239Z,95885.38
2023-01-28T06:24:17.695Z,95883.41
2023-01-28T06:27:20.027Z,95887.31
2023-01-28T06:30:21.802Z,95891.63
2023-01-28T06:33:25.115Z,95891.03
2023-01-28T06:36:27.135Z,95899.97
2023-01-28T06:39:29.568Z,95903.31
2023-01-28T06:42:31.474Z,95899.41
2023-01-28T06:45:34.342Z,95905.84
2023-01-28T06:48:37.658Z,95914.50
2023-01-28T06:51:39.660Z,95913.44
2023-01-28T06:54:41.847Z,95920.31
2023-01-28T06:57:43.933Z,95915.97
2023-01-28T07:00:45.912Z,95918.25
2023-01-28T07:03:49.439Z,95910.09
2023-01-28T07:06:51.197Z,95926.00
2023-01-28T07:09:53.087Z,95924.72
2023-01-28T07:12:54.939Z,95924.66
2023-01-28T07:15:56.807Z,95923.84
2023-01-28T07:19:00.570Z,95930.66
2023-01-28T07:22:02.416Z,95933.31
2023-01-28T07:25:05.872Z,95932.69
2023-01-28T07:28:07.980Z,95931.31
2023-01-28T07:31:10.348Z,95935.56
2023-01-28T07:34:14.537Z,95935.84
2023-01-28T07:37:16.457Z,95939.78
2023-01-28T07:40:18.757Z,95944.81
2023-01-28T07:43:21.059Z,95942.16
2023-01-28T07:46:22.840Z,95941.66
2023-01-28T07:49:26.531Z,95955.41
2023-01-28T07:52:28.412Z,95951.66
2023-01-28T07:55:31.515Z,95954.31
2023-01-28T07:58:33.849Z,95950.31
2023-01-28T08:01:35.745Z,95947.28
2023-01-28T08:04:39.224Z,95953.53
2023-01-28T08:07:41.229Z,95961.81
2023-01-28T08:10:43.317Z,95966.59
2023-01-28T08:13:45.269Z,95966.03
2023-01-28T08:16:47.406Z,95970.25
2023-01-28T08:19:50.759Z,95980.06
2023-01-28T08:22:53.069Z,95978.09
2023-01-28T08:25:57.863Z,95981.06
2023-01-28T08:28:59.696Z,95982.81
2023-01-28T08:32:01.585Z,95990.78
2023-01-28T08:35:06.130Z,95985.69
2023-01-28T08:38:09.067Z,95986.66
2023-01-28T08:41:11.865Z,95981.34
2023-01-28T08:44:13.680Z,95983.41
2023-01-28T08:47:15.713Z,95980.97
2023-01-28T08:50:19.791Z,95986.00
2023-01-28T08:53:21.694Z,95987.25
2023-01-28T08:56:23.746Z,95994.03
2023-01-28T08:59:25.657Z,95990.50
2023-01-28T09:02:31.932Z,95991.94
2023-01-28T09:05:36.583Z,95993.16
2023-01-28T09:08:38.571Z,96001.50
2023-01-28T09:11:40.436Z,96002.69
2023-01-28T09:14:42.508Z,96001.78
2023-01-28T09:17:44.316Z,96007.09
2023-01-28T09:20:48.626Z,96012.91
2023-01-28T09:23:50.775Z,96007.09
2023-01-28T09:26:52.840Z,96012.91
2023-01-28T09:29:54.750Z,96021.84
2023-01-28T09:32:57.754Z,96021.13
2023-01-28T09:36:02.270Z,96020.75
2023-01-28T09:39:04.393Z,96022.63
2023-01-28T09:42:28.128Z,96020.88
2023-01-28T09:45:37.464Z,96029.78
2023-01-28T09:48:44.747Z,96014.16
2023-01-28T09:51:52.154Z,96015.63
2023-01-28T09:54:59.956Z,96012.50
2023-01-28T09:58:02.140Z,96018.78
2023-01-28T10:01:23.139Z,96006.50
2023-01-28T10:04:44.469Z,96013.47
2023-01-28T10:07:57.676Z,96003.84
2023-01-28T10:11:07.599Z,95999.44
2023-01-28T10:14:17.329Z,96000.03
2023-01-28T10:17:29.278Z,96000.31
2023-01-28T10:20:36.437Z,95998.38
2023-01-28T10:23:49.427Z,95996.88
2023-01-28T10:26:52.693Z,95999.84
2023-01-28T10:29:54.781Z,95995.41
2023-01-28T10:33:01.901Z,95997.56
2023-01-28T10:36:05.020Z,95993.25
2023-01-28T10:39:10.785Z,95996.00
2023-01-28T10:42:27.508Z,95992.97
2023-01-28T10:45:34.649Z,95999.72
2023-01-28T10:48:42.968Z,96001.97
2023-01-28T10:51:44.881Z,95998.06
2023-01-28T10:54:58.920Z,96005.53
2023-01-28T10:58:03.999Z,96003.38
2023-01-28T11:01:07.607Z,95995.91
2023-01-28T11:04:22.430Z,96002.28
2023-01-28T11:07:24.454Z,95999.34
2023-01-28T11:10:30.840Z,95996.50
2023-01-28T11:13:32.604Z,96001.22
2023-01-28T11:16:34.573Z,96001.59
2023-01-28T11:19:39.079Z,95998.56
2023-01-28T11:22:43.491Z,95998.06
2023-01-28T11:25:46.974Z,96000.03
2023-01-28T11:28:50.409Z,95999.63
2023-01-28T11:31:54.273Z,95997.66
2023-01-28T11:34:57.048Z,95996.66
2023-01-28T11:37:59.741Z,95998.53
2023-01-28T11:41:03.127Z,96003.66
2023-01-28T11:44:16.529Z,96005.91
2023-01-28T11:47:38.994Z,96007.97
2023-01-28T11:50:51.697Z,96009.75
2023-01-28T11:54:07.147Z,96005.91
2023-01-28T11:57:22.242Z,96000.72
2023-01-28T12:00:38.657Z,95997.38
2023-01-28T12:03:51.631Z,96005.84
2023-01-28T12:07:18.316Z,96005.84
2023-01-28T12:10:31.874Z,96001.69
2023-01-28T12:13:55.646Z,96002.59
2023-01-28T12:17:12.968Z,96008.78
2023-01-28T12:20:24.556Z,96009.75
2023-01-28T12:23:48.255Z,95998.25
2023-01-28T12:27:01.892Z,96002.88
2023-01-28T12:30:19.153Z,96001.91
2023-01-28T12:33:41.575Z,96002.50
2023-01-28T12:36:56.052Z,96003.00
2023-01-28T12:40:14.750Z,96005.66
2023-01-28T12:43:22.775Z,96012.59
2023-01-28T12:46:38.714Z,96009.88
2023-01-28T12:49:46.649Z,96004.25
2023-01-28T12:52:53.780Z,96011.22
2023-01-28T12:56:00.819Z,96011.13
2023-01-28T12:59:10.640Z,96009.06
2023-01-28T13:02:24.513Z,96003.38
2023-01-28T13:05:33.315Z,96014.19
2023-01-28T13:08:35.385Z,96012.53
2023-01-28T13:11:38.066Z,96010.34
2023-01-28T13:14:41.363Z,96019.09
2023-01-28T13:17:56.080Z,96014.75
2023-01-28T13:20:58.593Z,96016.84
2023-01-28T13:24:07.027Z,96012.50
2023-01-28T13:27:21.350Z,96015.44
2023-01-28T13:30:26.237Z,96020.56
2023-01-28T13:33:32.906Z,96022.53
2023-01-28T13:36:39.843Z,96022.91
2023-01-28T13:39:49.812Z,96024.00
2023-01-28T13:43:03.291Z,96032.56
2023-01-28T13:46:07.449Z,96038.94
2023-01-28T13:49:18.691Z,96041.97
2023-01-28T13:52:26.656Z,96036.97
2023-01-28T13:55:43.996Z,96043.25
2023-01-28T13:59:15.909Z,96055.34
2023-01-28T14:02:42.605Z,96049.91
2023-01-28T14:06:11.711Z,96051.41
2023-01-28T14:09:42.977Z,96052.31
2023-01-28T14:13:29.099Z,96046.91
2023-01-28T14:16:41.107Z,96051.22
2023-01-28T14:19:45.166Z,96058.06
2023-01-28T14:22:49.204Z,96055.16
2023-01-28T14:26:03.212Z,96051.63
2023-01-28T14:29:31.740Z,96061.03
2023-01-28T14:32:35.315Z,96069.31
2023-01-28T14:35:44.077Z,96059.84
2023-01-28T14:38:48.276Z,96059.06
2023-01-28T14:41:53.426Z,96058.47
2023-01-28T14:45:09.979Z,96064.34
2023-01-28T14:48:23.635Z,96076.38
2023-01-28T14:51:42.679Z,96079.22
2023-01-28T14:54:56.676Z,96085.22
2023-01-28T14:58:02.923Z,96072.34
2023-01-28T15:01:05.036Z,96078.41
2023-01-28T15:04:23.340Z,96073.50
2023-01-28T15:07:27.595Z,96075.38
2023-01-28T15:10:35.601Z,96084.03
2023-01-28T15:13:40.828Z,96086.53
2023-01-28T15:16:48.295Z,96091.06
2023-01-28T15:19:50.954Z,96094.53
2023-01-28T15:22:53.565Z,96104.69
2023-01-28T15:25:57.335Z,96101.41
2023-01-28T15:28:59.885Z,96097.47
2023-01-28T15:32:03.075Z,96102.09
2023-01-28T15:35:11.604Z,96097.59
2023-01-28T15:38:14.127Z,96106.81
2023-01-28T15:41:20.059Z,96102.78
2023-01-28T15:44:29.162Z,96118.81
2023-01-28T15:47:32.070Z,96114.28
2023-01-28T15:50:34.208Z,96116.34
2023-01-28T15:53:42.373Z,96125.75
2023-01-28T15:56:47.013Z,96116.94
2023-01-28T15:59:49.453Z,96124.28
2023-01-28T16:02:53.233Z,96126.13
2023-01-28T16:06:02.604Z,96132.28
2023-01-28T16:09:08.140Z,96135.38
2023-01-28T16:12:14.641Z,96132.03
2023-01-28T16:15:19.933Z,96132.13
2023-01-28T16:18:29.644Z,96134.06
2023-01-28T16:21:34.720Z,96128.06
2023-01-28T16:24:37.000Z,96140.19
2023-01-28T16:27:40.830Z,96132.50
2023-01-28T16:30:43.114Z,96142.75
2023-01-28T16:33:45.159Z,96140.50
2023-01-28T16:36:47.302Z,96142.47
2023-01-28T16:39:50.193Z,96144.81
2023-01-28T16:42:55.514Z,96150.84
2023-01-28T16:45:57.553Z,96145.38
2023-01-28T16:49:00.489Z,96147.88
2023-01-28T16:52:03.719Z,96151.63
2023-01-28T16:55:06.291Z,96162.00
2023-01-28T16:58:10.843Z,96165.00
2023-01-28T17:01:13.242Z,96160.81
2023-01-28T17:04:15.744Z,96172.47
2023-01-28T17:07:18.041Z,96173.84
2023-01-28T17:10:20.067Z,96171.47
2023-01-28T17:13:23.963Z,96176.09
2023-01-28T17:16:28.911Z,96173.28
2023-01-28T17:19:31.218Z,96170.13
2023-01-28T17:22:33.084Z,96170.31
2023-01-28T17:25:37.797Z,96169.09
2023-01-28T17:28:41.794Z,96168.44
2023-01-28T17:31:44.528Z,96173.84
2023-01-28T17:34:48.302Z,96178.13
2023-01-28T17:37:54.456Z,96182.38
2023-01-28T17:41:01.772Z,96192.91
2023-01-28T17:44:06.143Z,96191.66
2023-01-28T17:47:08.285Z,96194.00
2023-01-28T17:50:11.657Z,96197.41
2023-01-28T17:53:14.006Z,96201.66
2023-01-28T17:56:17.737Z,96209.03
2023-01-28T17:59:22.634Z,96206.84
2023-01-28T18:02:26.421Z,96207.09
2023-01-28T18:05:28.758Z,96211.59
2023-01-28T18:08:30.796Z,96218.69
2023-01-28T18:11:32.907Z,96212.31
2023-01-28T18:14:39.099Z,96213.78
2023-01-28T18:17:42.243Z,96211.13
2023-01-28T18:20:44.601Z,96209.84
2023-01-28T18:23:46.830Z,96212.44
2023-01-28T18:26:50.676Z,96206.53
2023-01-28T18:29:54.389Z,96217.34
2023-01-28T18:32:56.980Z,96216.06
2023-01-28T18:36:00.141Z,96219.53
2023-01-28T18:39:03.651Z,96213.34
2023-01-28T18:42:06.833Z,96212.53
2023-01-28T18:45:12.131Z,96216.56
2023-01-28T18:48:14.503Z,96215.19
2023-01-28T18:51:29.466Z,96218.56
2023-01-28T18:54:33.567Z,96215.72
2023-01-28T18:57:36.391Z,96219.94
2023-01-28T19:00:39.927Z,96222.91
2023-01-28T19:03:42.313Z,96218.88
2023-01-28T19:06:46.739Z,96218.25
2023-01-28T19:09:48.838Z,96222.41
2023-01-28T19:12:51.367Z,96226.16
2023-01-28T19:15:55.630Z,96226.53
2023-01-28T19:18:59.810Z,96228.97
2023-01-28T19:22:02.716Z,96238.16
2023-01-28T19:25:09.460Z,96239.72
2023-01-28T19:28:11.816Z,96239.94
2023-01-28T19:31:15.923Z,96243.16
2023-01-28T19:34:18.166Z,96237.28
2023-01-28T19:37:21.451Z,96236.66
2023-01-28T19:40:25.344Z,96246.22
2023-01-28T19:43:28.224Z,96253.09
2023-01-28T19:46:33.102Z,96249.75
2023-01-28T19:49:35.568Z,96245.25
2023-01-28T19:52:38.177Z,96250.03
2023-01-28T19:55:40.954Z,96247.38
2023-01-28T19:58:49.559Z,96250.25
2023-01-28T20:01:53.393Z,96254.19
2023-01-28T20:05:00.968Z,96246.38
2023-01-28T20:08:03.778Z,96246.69
2023-01-28T20:11:07.602Z,96249.34
2023-01-28T20:14:12.205Z,96248.16
2023-01-28T20:17:16.074Z,96247.38
2023-01-28T20:20:18.913Z,96253.78
2023-01-28T20:23:23.510Z,96247.97
2023-01-28T20:26:28.539Z,96248.75
2023-01-28T20:29:31.327Z,96259.59
2023-01-28T20:32:35.084Z,96257.03
2023-01-28T20:35:38.518Z,96259.09
2023-01-28T20:38:44.104Z,96250.81
2023-01-28T20:41:46.848Z,96254.47
2023-01-28T20:44:49.334Z,96256.81
2023-01-28T20:47:53.980Z,96264.22
2023-01-28T20:50:57.064Z,96266.88
2023-01-28T20:54:01.327Z,96270.63
2023-01-28T20:57:04.352Z,96270.50
2023-01-28T21:00:08.871Z,96277.13
2023-01-28T21:03:12.501Z,96267.75
2023-01-28T21:06:15.801Z,96266.88
2023-01-28T21:09:19.552Z,96267.25
2023-01-28T21:12:21.581Z,96273.28
2023-01-28T21:15:24.573Z,96273.47
2023-01-28T21:18:30.590Z,96277.50
2023-01-28T21:21:32.847Z,96264.50
2023-01-28T21:24:35.631Z,96278.09
2023-01-28T21:27:38.721Z,96262.63
2023-01-28T21:30:42.264Z,96274.03
2023-01-28T21:33:48.957Z,96274.66
2023-01-28T21:36:51.294Z,96276.50
2023-01-28T21:39:53.834Z,96280.34
2023-01-28T21:42:56.686Z,96284.09
2023-01-28T21:45:59.975Z,96295.81
2023-01-28T21:49:06.009Z,96293.34
2023-01-28T21:52:08.280Z,96298.78
2023-01-28T21:55:10.550Z,96306.63
2023-01-28T21:58:13.191Z,96297.78
2023-01-28T22:01:15.305Z,96304.88
2023-01-28T22:04:19.419Z,96298.28
2023-01-28T22:07:21.512Z,96290.69
2023-01-28T22:10:23.688Z,96294.81
2023-01-28T22:13:25.883Z,96295.41
2023-01-28T22:16:27.841Z,96299.72
2023-01-28T22:19:31.233Z,96307.19
2023-01-28T22:22:33.173Z,96292.34
2023-01-28T22:25:35.660Z,96292.63
2023-01-28T22:28:37.982Z,96298.53
2023-01-28T22:31:41.141Z,96292.34
2023-01-28T22:34:46.674Z,96303.28
2023-01-28T22:37:48.875Z,96289.47
2023-01-28T22:40:50.683Z,96295.41
2023-01-28T22:43:53.143Z,96293.31
2023-01-28T22:46:55.219Z,96289.75
2023-01-28T22:49:58.638Z,96298.09
2023-01-28T22:53:00.603Z,96294.56
2023-01-28T22:56:02.692Z,96289.56
2023-01-28T22:59:04.970Z,96280.41
2023-01-28T23:02:07.162Z,96285.47
2023-01-28T23:05:10.582Z,96272.94
2023-01-28T23:08:13.320Z,96284.34
2023-01-28T23:11:16.155Z,96281.63
2023-01-28T23:14:18.418Z,96270.78
2023-01-28T23:17:20.326Z,96272.06
2023-01-28T23:20:23.613Z,96270.78
2023-01-28T23:23:26.022Z,96283.00
2023-01-28T23:26:28.891Z,96284.97
2023-01-28T23:29:31.708Z,96291.34
2023-01-28T23:32:33.650Z,96293.19
2023-01-28T23:35:37.897Z,96289.00
2023-01-28T23:38:40.424Z,96288.28
2023-01-28T23:41:44.648Z,96279.25
2023-01-28T23:44:47.416Z,96275.00
2023-01-28T23:47:49.265Z,96271.28
2023-01-28T23:50:55.922Z,96272.06
2023-01-28T23:53:58.129Z,96267.25
2023-01-28T23:57:00.659Z,96269.28
